Airfield :
LOGIN :

Register | Disclaimer

   EN    FR    IT 

 










Legend :    VFR   Marginal VFR   IFR   Intensive IFR   Very Intensive IFR
Visi :
Ceiling :
>= 8 km
>= 3000ft
5 to 8 km
1000 to 3000 ft
1500m to 5 km
500 to 1000 ft
800 to 1500m
200 to 500 ft
< 800m
< 200 ft
Symbols :   Thunderstorms  Fog  Heavy snow  Heavy precipitations  Wind > 20 kt
SIGMETs :     Misc.  Thunderstorms  Icing  Turbulence  Mountain Waves  Volcanic Ashes






- Airport Elevation : 36 ft
- IATA code : LTQ


LFAT - Le Touquet

CURRENT METAR :
  • 221300Z AUTO 34006KT 290V030 CAVOK 21/13 Q1013 TEMPO SCT060TCU

EXPIRED METARs :
  • 221230Z AUTO 33006KT 290V030 CAVOK 20/12 Q1013 TEMPO SCT060TCU
  • 221200Z AUTO 33007KT 300V020 CAVOK 20/13 Q1014 NOSIG
  • 221130Z AUTO 34007KT 280V020 9999 FEW035 20/13 Q1014 NOSIG
  • 221100Z AUTO VRB03KT CAVOK 21/13 Q1014 NOSIG
  • 221030Z AUTO VRB02KT CAVOK 20/12 Q1014 NOSIG

TAF TAF LFAT
Valid from the 22 at 12:00 until the 22 at 21:00 UTC


221100Z 2212/2221 VRB03KT CAVOK
TEMPO 2214/2216 SCT060TCU
ATIS : +33 3 21 06 62 84



MET'MAP, your aeronautical weather chart ! - Copyright ORBIFLY December 2007 - Disclaimer

ORBIFLY MET'MAP TEAM :

Programming & Development : Alexandra Zaïnal
Original concept : Baudouin d'Aumeries
Technical & hardware support : Manuel Goepfert
Assistance : Marc-Olivier Méhu

Contact : metmap@orbifly.com




SOURCES & CREDITS :

   NOAA